Time;durP1;ratioP1;P1;durP2;ratioP2;P2;SDS_P1;SDS_P2;PMS_P1;PMS_P2;Temp;Humidity;BMP_temperature;BMP_pressure;BME280_temperature;BME280_humidity;BME280_pressure;Samples;Min_cycle;Max_cycle;Signal;HPM_P1;HPM_P2
2023/06/11 00:02:12;;;;;;;;;;;;;;;;;;4937853;28;19926;-81
2023/06/11 00:04:58;;;;;;;;;;;;;;;;;;4947099;28;19923;-82
2023/06/11 00:07:45;;;;;;;;;;;;;;;;;;4947844;28;19945;-81
2023/06/11 00:10:31;;;;;;;;;;;;;;;;;;4937440;28;19922;-84
2023/06/11 00:13:18;;;;;;;;;;;;;;;;;;4940307;29;19918;-83
2023/06/11 00:16:04;;;;;;;;;;;;;;;;;;4936486;28;19915;-83
2023/06/11 00:18:51;;;;;;;;;;;;;;;;;;4948728;28;19929;-83
2023/06/11 00:21:40;;;;;;;;;;;;;;;;;;4944133;28;19933;-83
2023/06/11 00:24:27;;;;;;;;;;;;;;;;;;4947806;28;19932;-83
2023/06/11 00:27:13;;;;;;;;;;;;;;;;;;4942670;29;19927;-85
2023/06/11 00:30:03;;;;;;;;;;;;;;;;;;4930604;28;20390;-85
2023/06/11 00:32:49;;;;;;;;;;;;;;;;;;4944234;28;19930;-84
2023/06/11 00:35:36;;;;;;;;;;;;;;;;;;4938162;28;19931;-84
2023/06/11 00:38:22;;;;;;;;;;;;;;;;;;4948569;28;19926;-84
2023/06/11 00:41:09;;;;;;;;;;;;;;;;;;4945722;28;19955;-87
2023/06/11 00:43:55;;;;;;;;;;;;;;;;;;4943384;28;19923;-84
2023/06/11 00:46:42;;;;;;;;;;;;;;;;;;4944734;28;19923;-84
2023/06/11 00:49:29;;;;;;;;;;;;;;;;;;4943188;28;19918;-85
2023/06/11 00:52:15;;;;;;;;;;;;;;;;;;4937847;28;20239;-84
2023/06/11 00:55:02;;;;;;;;;;;;;;;;;;4929091;28;19922;-83
2023/06/11 00:57:49;;;;;;;;;;;;;;;;;;4940683;28;20277;-86
2023/06/11 01:00:36;;;;;;;;;;;;;;;;;;4941761;28;20279;-84
2023/06/11 01:03:26;;;;;;;;;;;;;;;;;;4945857;28;19929;-84
2023/06/11 01:06:17;;;;;;;;;;;;;;;;;;4937290;28;19929;-84
2023/06/11 01:09:04;;;;;;;;;;;;;;;;;;4940752;28;19919;-83
2023/06/11 01:11:53;;;;;;;;;;;;;;;;;;4948642;28;19926;-83
2023/06/11 01:14:39;;;;;;;;;;;;;;;;;;4946346;28;20363;-85
2023/06/11 01:17:26;;;;;;;;;;;;;;;;;;4939630;28;19923;-85
2023/06/11 01:20:13;;;;;;;;;;;;;;;;;;4936471;28;19940;-85
2023/06/11 01:23:00;;;;;;;;;;;;;;;;;;4936873;28;19919;-84
2023/06/11 01:25:46;;;;;;;;;;;;;;;;;;4937889;28;19921;-83
2023/06/11 01:28:33;;;;;;;;;;;;;;;;;;4951466;28;20321;-84
2023/06/11 01:31:19;;;;;;;;;;;;;;;;;;4951107;28;19925;-82
2023/06/11 01:34:06;;;;;;;;;;;;;;;;;;4938522;28;20289;-81
2023/06/11 01:36:52;;;;;;;;;;;;;;;;;;4940831;29;19914;-80
2023/06/11 01:39:39;;;;;;;;;;;;;;;;;;4938243;28;19922;-82
2023/06/11 01:42:26;;;;;;;;;;;;;;;;;;4942104;28;20434;-82
2023/06/11 01:45:12;;;;;;;;;;;;;;;;;;4936727;29;19915;-83
2023/06/11 01:47:59;;;;;;;;;;;;;;;;;;4932261;28;19919;-83
2023/06/11 01:50:45;;;;;;;;;;;;;;;;;;4955417;28;20275;-84
2023/06/11 01:53:32;;;;;;;;;;;;;;;;;;4944426;28;19933;-85
2023/06/11 01:56:18;;;;;;;;;;;;;;;;;;4942285;28;19914;-85
2023/06/11 01:59:05;;;;;;;;;;;;;;;;;;4933695;28;19926;-81
2023/06/11 02:01:53;;;;;;;;;;;;;;;;;;4953433;28;19925;-82
2023/06/11 02:04:40;;;;;;;;;;;;;;;;;;4937488;28;19949;-81
2023/06/11 02:07:27;;;;;;;;;;;;;;;;;;4945366;29;19918;-82
2023/06/11 02:10:14;;;;;;;;;;;;;;;;;;4937458;29;19919;-82
2023/06/11 02:13:00;;;;;;;;;;;;;;;;;;4933878;28;19931;-83
2023/06/11 02:15:47;;;;;;;;;;;;;;;;;;4939715;28;19919;-82
2023/06/11 02:18:33;;;;;;;;;;;;;;;;;;4948567;28;19926;-83
2023/06/11 02:21:20;;;;;;;;;;;;;;;;;;4936171;28;20555;-83
2023/06/11 02:24:06;;;;;;;;;;;;;;;;;;4937148;28;19941;-83
2023/06/11 02:26:53;;;;;;;;;;;;;;;;;;4945099;28;19934;-83
2023/06/11 02:29:39;;;;;;;;;;;;;;;;;;4943493;29;19925;-83
2023/06/11 02:32:26;;;;;;;;;;;;;;;;;;4940760;29;20398;-84
2023/06/11 02:35:12;;;;;;;;;;;;;;;;;;4931909;29;19922;-84
2023/06/11 02:37:59;;;;;;;;;;;;;;;;;;4935108;29;20298;-84
2023/06/11 02:40:45;;;;;;;;;;;;;;;;;;4941860;29;19926;-82
2023/06/11 02:43:32;;;;;;;;;;;;;;;;;;4940158;29;19929;-82
2023/06/11 02:46:18;;;;;;;;;;;;;;;;;;4940290;28;19923;-83
2023/06/11 02:49:05;;;;;;;;;;;;;;;;;;4945869;28;20294;-84
2023/06/11 02:51:51;;;;;;;;;;;;;;;;;;4936717;28;19937;-85
2023/06/11 02:54:38;;;;;;;;;;;;;;;;;;4940019;29;19915;-84
2023/06/11 02:57:24;;;;;;;;;;;;;;;;;;4940140;29;20275;-85
2023/06/11 03:00:11;;;;;;;;;;;;;;;;;;4940007;29;19934;-84
2023/06/11 03:02:57;;;;;;;;;;;;;;;;;;4944616;28;19941;-83
2023/06/11 03:05:44;;;;;;;;;;;;;;;;;;4943855;29;20354;-82
2023/06/11 03:08:30;;;;;;;;;;;;;;;;;;4950903;28;19930;-84
2023/06/11 03:11:17;;;;;;;;;;;;;;;;;;4943686;29;19922;-86
2023/06/11 03:14:03;;;;;;;;;;;;;;;;;;4946016;29;19929;-86
2023/06/11 03:16:50;;;;;;;;;;;;;;;;;;4929602;28;19922;-85
2023/06/11 03:19:36;;;;;;;;;;;;;;;;;;4938830;28;20680;-85
2023/06/11 03:22:23;;;;;;;;;;;;;;;;;;4945725;28;19918;-85
2023/06/11 03:25:09;;;;;;;;;;;;;;;;;;4944861;29;19934;-85
2023/06/11 03:27:56;;;;;;;;;;;;;;;;;;4944334;28;19934;-84
2023/06/11 03:30:42;;;;;;;;;;;;;;;;;;4946948;28;20371;-81
2023/06/11 03:33:28;;;;;;;;;;;;;;;;;;4944918;28;19926;-83
2023/06/11 03:36:15;;;;;;;;;;;;;;;;;;4934553;29;19926;-82
2023/06/11 03:39:01;;;;;;;;;;;;;;;;;;4947388;28;20376;-85
2023/06/11 03:41:48;;;;;;;;;;;;;;;;;;4949670;28;19918;-80
2023/06/11 03:44:35;;;;;;;;;;;;;;;;;;4944447;28;20286;-81
2023/06/11 03:47:21;;;;;;;;;;;;;;;;;;4939653;28;19929;-82
2023/06/11 03:50:07;;;;;;;;;;;;;;;;;;4938749;29;19919;-82
2023/06/11 03:52:54;;;;;;;;;;;;;;;;;;4945828;28;19930;-83
2023/06/11 03:55:41;;;;;;;;;;;;;;;;;;4937121;28;19944;-83
2023/06/11 03:58:27;;;;;;;;;;;;;;;;;;4942406;28;19926;-83
2023/06/11 04:01:14;;;;;;;;;;;;;;;;;;4937915;28;19918;-82
2023/06/11 04:04:00;;;;;;;;;;;;;;;;;;4943241;28;19919;-83
2023/06/11 04:06:47;;;;;;;;;;;;;;;;;;4939020;29;19941;-84
2023/06/11 04:09:34;;;;;;;;;;;;;;;;;;4938147;28;19923;-84
2023/06/11 04:12:20;;;;;;;;;;;;;;;;;;4942163;29;19930;-85
2023/06/11 04:15:07;;;;;;;;;;;;;;;;;;4928547;29;19929;-84
2023/06/11 04:17:53;;;;;;;;;;;;;;;;;;4936230;28;19923;-84
2023/06/11 04:20:40;;;;;;;;;;;;;;;;;;4938335;29;19919;-82
2023/06/11 04:23:26;;;;;;;;;;;;;;;;;;4934412;29;19919;-83
2023/06/11 04:26:15;;;;;;;;;;;;;;;;;;4937847;28;19915;-84
2023/06/11 04:29:02;;;;;;;;;;;;;;;;;;4941967;28;19935;-85
2023/06/11 04:31:50;;;;;;;;;;;;;;;;;;4940159;29;19927;-80
2023/06/11 04:34:38;;;;;;;;;;;;;;;;;;4936350;29;20643;-81
2023/06/11 04:37:25;;;;;;;;;;;;;;;;;;4933214;29;19923;-84
2023/06/11 04:40:13;;;;;;;;;;;;;;;;;;4935864;28;20637;-85
2023/06/11 04:43:00;;;;;;;;;;;;;;;;;;4951029;28;20347;-85
2023/06/11 04:45:49;;;;;;;;;;;;;;;;;;4940094;29;19922;-84
2023/06/11 04:48:37;;;;;;;;;;;;;;;;;;4941863;28;19933;-84
2023/06/11 04:51:25;;;;;;;;;;;;;;;;;;4937115;29;19927;-84
2023/06/11 04:54:11;;;;;;;;;;;;;;;;;;4944298;28;19930;-84
2023/06/11 04:56:58;;;;;;;;;;;;;;;;;;4941739;28;19915;-84
2023/06/11 04:59:45;;;;;;;;;;;;;;;;;;4937377;28;19936;-83
2023/06/11 05:02:32;;;;;;;;;;;;;;;;;;4946153;28;19929;-85
2023/06/11 05:05:18;;;;;;;;;;;;;;;;;;4925617;28;20658;-82
2023/06/11 05:08:05;;;;;;;;;;;;;;;;;;4942129;28;19966;-84
2023/06/11 05:10:51;;;;;;;;;;;;;;;;;;4931038;29;19919;-84
2023/06/11 05:13:38;;;;;;;;;;;;;;;;;;4944713;28;19927;-84
2023/06/11 05:16:26;;;;;;;;;;;;;;;;;;4941696;29;20239;-83
2023/06/11 05:19:12;;;;;;;;;;;;;;;;;;4947979;28;19930;-83
2023/06/11 05:21:59;;;;;;;;;;;;;;;;;;4947399;28;21119;-84
2023/06/11 05:24:47;;;;;;;;;;;;;;;;;;4944323;28;19919;-85
2023/06/11 05:27:33;;;;;;;;;;;;;;;;;;4941841;28;20034;-82
2023/06/11 05:30:24;;;;;;;;;;;;;;;;;;4945656;28;19922;-83
2023/06/11 05:33:10;;;;;;;;;;;;;;;;;;4940521;28;19927;-83
2023/06/11 05:35:57;;;;;;;;;;;;;;;;;;4937663;28;19915;-82
2023/06/11 05:38:44;;;;;;;;;;;;;;;;;;4941970;28;19926;-84
2023/06/11 05:41:30;;;;;;;;;;;;;;;;;;4939251;29;19918;-85
2023/06/11 05:44:17;;;;;;;;;;;;;;;;;;4940995;29;19991;-84
2023/06/11 05:47:03;;;;;;;;;;;;;;;;;;4942834;28;19922;-84
2023/06/11 05:49:50;;;;;;;;;;;;;;;;;;4948547;28;20381;-87
2023/06/11 05:52:37;;;;;;;;;;;;;;;;;;4950366;28;19937;-85
2023/06/11 05:55:23;;;;;;;;;;;;;;;;;;4939800;28;19925;-85
2023/06/11 05:58:10;;;;;;;;;;;;;;;;;;4936173;29;19930;-86
2023/06/11 06:00:56;;;;;;;;;;;;;;;;;;4945638;29;20497;-81
2023/06/11 06:03:43;;;;;;;;;;;;;;;;;;4941058;29;19914;-81
2023/06/11 06:06:30;;;;;;;;;;;;;;;;;;4944095;29;19919;-79
2023/06/11 06:09:17;;;;;;;;;;;;;;;;;;4938971;29;19926;-80
2023/06/11 06:12:03;;;;;;;;;;;;;;;;;;4939411;29;19922;-78
2023/06/11 06:14:50;;;;;;;;;;;;;;;;;;4941872;28;19919;-80
2023/06/11 06:17:36;;;;;;;;;;;;;;;;;;4945716;28;19919;-80
2023/06/11 06:20:23;;;;;;;;;;;;;;;;;;4939228;28;20410;-80
2023/06/11 06:23:09;;;;;;;;;;;;;;;;;;4944860;29;20401;-82
2023/06/11 06:25:56;;;;;;;;;;;;;;;;;;4946889;29;19928;-82
2023/06/11 06:28:42;;;;;;;;;;;;;;;;;;4935973;28;19931;-86
2023/06/11 06:31:30;;;;;;;;;;;;;;;;;;4944577;28;19933;-83
2023/06/11 06:34:17;;;;;;;;;;;;;;;;;;4934339;29;19918;-83
2023/06/11 06:37:03;;;;;;;;;;;;;;;;;;4944747;28;19927;-82
2023/06/11 06:39:50;;;;;;;;;;;;;;;;;;4943432;29;19919;-81
2023/06/11 06:42:36;;;;;;;;;;;;;;;;;;4935715;28;19919;-81
2023/06/11 06:45:23;;;;;;;;;;;;;;;;;;4941082;28;19957;-81
2023/06/11 06:48:09;;;;;;;;;;;;;;;;;;4930680;29;19914;-82
2023/06/11 06:50:56;;;;;;;;;;;;;;;;;;4944371;28;19922;-84
2023/06/11 06:53:42;;;;;;;;;;;;;;;;;;4945693;29;19926;-84
2023/06/11 06:56:28;;;;;;;;;;;;;;;;;;4941716;29;19918;-85
2023/06/11 06:59:16;;;;;;;;;;;;;;;;;;4936541;29;19922;-79
2023/06/11 07:02:03;;;;;;;;;;;;;;;;;;4940022;29;19927;-82
2023/06/11 07:04:50;;;;;;;;;;;;;;;;;;4941598;28;19940;-82
2023/06/11 07:07:37;;;;;;;;;;;;;;;;;;4938679;28;19929;-82
2023/06/11 07:10:23;;;;;;;;;;;;;;;;;;4940519;29;19960;-82
2023/06/11 07:13:10;;;;;;;;;;;;;;;;;;4941130;28;19930;-81
2023/06/11 07:15:56;;;;;;;;;;;;;;;;;;4941428;28;19945;-82
2023/06/11 07:18:43;;;;;;;;;;;;;;;;;;4942269;29;19918;-83
2023/06/11 07:21:30;;;;;;;;;;;;;;;;;;4939921;28;19929;-82
2023/06/11 07:24:16;;;;;;;;;;;;;;;;;;4930684;28;19926;-83
2023/06/11 07:27:02;;;;;;;;;;;;;;;;;;4930476;28;19938;-83
2023/06/11 07:29:49;;;;;;;;;;;;;;;;;;4939866;29;19927;-84
2023/06/11 07:32:36;;;;;;;;;;;;;;;;;;4932931;28;19930;-86
2023/06/11 07:35:23;;;;;;;;;;;;;;;;;;4938620;28;19923;-85
2023/06/11 07:38:09;;;;;;;;;;;;;;;;;;4946521;28;19976;-84
2023/06/11 07:40:56;;;;;;;;;;;;;;;;;;4943248;29;19923;-88
2023/06/11 07:43:42;;;;;;;;;;;;;;;;;;4942594;28;19922;-87
2023/06/11 07:46:29;;;;;;;;;;;;;;;;;;4933695;28;19922;-85
2023/06/11 07:49:16;;;;;;;;;;;;;;;;;;4943177;29;19927;-87
2023/06/11 07:52:03;;;;;;;;;;;;;;;;;;4937053;29;19930;-86
2023/06/11 07:54:49;;;;;;;;;;;;;;;;;;4932620;28;19926;-87
2023/06/11 07:57:36;;;;;;;;;;;;;;;;;;4930418;28;19918;-86
2023/06/11 08:00:22;;;;;;;;;;;;;;;;;;4938788;29;19926;-87
2023/06/11 08:03:09;;;;;;;;;;;;;;;;;;4937469;29;19926;-87
2023/06/11 08:05:55;;;;;;;;;;;;;;;;;;4944581;28;19925;-86
2023/06/11 08:08:42;;;;;;;;;;;;;;;;;;4941487;28;20418;-88
2023/06/11 08:11:28;;;;;;;;;;;;;;;;;;4941427;29;19922;-84
2023/06/11 08:14:18;;;;;;;;;;;;;;;;;;4944758;28;19926;-84
2023/06/11 08:17:05;;;;;;;;;;;;;;;;;;4939832;28;20610;-82
2023/06/11 08:19:51;;;;;;;;;;;;;;;;;;4937055;29;19919;-83
2023/06/11 08:22:39;;;;;;;;;;;;;;;;;;4941248;28;21179;-83
2023/06/11 08:25:26;;;;;;;;;;;;;;;;;;4939837;28;19922;-88
2023/06/11 08:28:12;;;;;;;;;;;;;;;;;;4934453;28;19930;-86
2023/06/11 08:30:59;;;;;;;;;;;;;;;;;;4936694;28;20585;-86
2023/06/11 08:33:45;;;;;;;;;;;;;;;;;;4935411;29;19937;-87
2023/06/11 08:36:32;;;;;;;;;;;;;;;;;;4931985;28;20459;-85
2023/06/11 08:39:18;;;;;;;;;;;;;;;;;;4938319;28;19926;-86
2023/06/11 08:42:05;;;;;;;;;;;;;;;;;;4945013;28;19922;-86
2023/06/11 08:44:52;;;;;;;;;;;;;;;;;;4938151;28;20594;-86
2023/06/11 08:47:41;;;;;;;;;;;;;;;;;;4952611;28;19926;-87
2023/06/11 08:50:28;;;;;;;;;;;;;;;;;;4950515;28;19925;-89
2023/06/11 08:53:14;;;;;;;;;;;;;;;;;;4934583;29;19926;-86
2023/06/11 08:56:01;;;;;;;;;;;;;;;;;;4941985;29;19930;-87
2023/06/11 08:58:47;;;;;;;;;;;;;;;;;;4938181;29;19919;-86
2023/06/11 09:01:34;;;;;;;;;;;;;;;;;;4938265;29;19929;-84
2023/06/11 09:04:22;;;;;;;;;;;;;;;;;;4885660;29;19930;-88
2023/06/11 09:07:08;;;;;;;;;;;;;;;;;;4943047;28;19915;-85
2023/06/11 09:09:55;;;;;;;;;;;;;;;;;;4942697;29;19922;-86
2023/06/11 09:12:41;;;;;;;;;;;;;;;;;;4934466;29;19927;-86
2023/06/11 09:15:38;;;;;;;;;;;;;;;;;;;;;
2023/06/11 09:18:25;;;;;;;;;;;;;;;;;;4882876;29;20692;-83
2023/06/11 09:21:12;;;;;;;;;;;;;;;;;;4941866;29;20370;-85
2023/06/11 09:24:00;;;;;;;;;;;;;;;;;;4826226;29;19916;-87
2023/06/11 09:29:59;;;;;;;;;;;;;;;;;;4927785;29;20513;-85
2023/06/11 09:32:48;;;;;;;;;;;;;;;;;;4928767;29;20006;-86
2023/06/11 09:35:34;;;;;;;;;;;;;;;;;;4927909;29;19919;-87
2023/06/11 09:38:21;;;;;;;;;;;;;;;;;;4927192;29;20409;-87
2023/06/11 09:41:07;;;;;;;;;;;;;;;;;;4925570;29;19919;-88
2023/06/11 09:43:54;;;;;;;;;;;;;;;;;;4925221;29;19926;-84
2023/06/11 09:46:40;;;;;;;;;;;;;;;;;;4924638;29;19975;-85
2023/06/11 09:49:27;;;;;;;;;;;;;;;;;;4928795;29;19915;-88
2023/06/11 09:52:14;;;;;;;;;;;;;;;;;;4932361;29;19923;-90
2023/06/11 09:55:00;;;;;;;;;;;;;;;;;;4932519;29;19945;-88
2023/06/11 09:57:47;;;;;;;;;;;;;;;;;;4938860;28;19922;-89
2023/06/11 10:00:36;;;;;;;;;;;;;;;;;;4941622;29;19922;-87
2023/06/11 10:03:23;;;;;;;;;;;;;;;;;;4946454;29;19923;-85
2023/06/11 10:06:09;;;;;;;;;;;;;;;;;;4946028;28;19919;-86
2023/06/11 10:08:56;;;;;;;;;;;;;;;;;;4940601;28;20267;-85
2023/06/11 10:11:42;;;;;;;;;;;;;;;;;;4946340;29;20387;-86
2023/06/11 10:14:29;;;;;;;;;;;;;;;;;;4946602;29;19929;-87
2023/06/11 10:17:15;;;;;;;;;;;;;;;;;;4941270;28;19918;-83
2023/06/11 10:20:02;;;;;;;;;;;;;;;;;;4930951;29;19930;-85
2023/06/11 10:22:49;;;;;;;;;;;;;;;;;;4948879;28;19922;-84
2023/06/11 10:25:36;;;;;;;;;;;;;;;;;;4941282;28;19930;-84
2023/06/11 10:28:22;;;;;;;;;;;;;;;;;;4942819;29;19930;-83
2023/06/11 10:31:08;;;;;;;;;;;;;;;;;;4945700;28;19922;-86
2023/06/11 10:33:55;;;;;;;;;;;;;;;;;;4948919;28;19930;-84
2023/06/11 10:36:41;;;;;;;;;;;;;;;;;;4946087;28;20294;-84
2023/06/11 10:39:28;;;;;;;;;;;;;;;;;;4943363;29;19929;-84
2023/06/11 10:42:15;;;;;;;;;;;;;;;;;;4945390;29;19928;-83
2023/06/11 10:45:01;;;;;;;;;;;;;;;;;;4942677;28;19918;-85
2023/06/11 10:47:49;;;;;;;;;;;;;;;;;;4941898;28;20374;-84
2023/06/11 10:50:35;;;;;;;;;;;;;;;;;;4948342;29;19976;-84
2023/06/11 10:53:22;;;;;;;;;;;;;;;;;;4936711;28;19930;-85
2023/06/11 10:56:08;;;;;;;;;;;;;;;;;;4948251;29;19914;-85
2023/06/11 10:58:55;;;;;;;;;;;;;;;;;;4942372;29;19926;-85
2023/06/11 11:01:41;;;;;;;;;;;;;;;;;;4946164;29;20297;-80
2023/06/11 11:04:28;;;;;;;;;;;;;;;;;;4950437;28;19926;-89
2023/06/11 11:07:17;;;;;;;;;;;;;;;;;;4943623;28;19922;-83
2023/06/11 11:10:05;;;;;;;;;;;;;;;;;;4945776;28;20932;-84
2023/06/11 11:12:51;;;;;;;;;;;;;;;;;;4931987;29;19923;-86
2023/06/11 11:15:38;;;;;;;;;;;;;;;;;;4946594;28;19919;-86
2023/06/11 11:18:24;;;;;;;;;;;;;;;;;;4947260;28;19919;-84
2023/06/11 11:21:11;;;;;;;;;;;;;;;;;;4938542;29;19990;-83
2023/06/11 11:23:57;;;;;;;;;;;;;;;;;;4933108;29;20314;-85
2023/06/11 11:26:44;;;;;;;;;;;;;;;;;;4947011;28;19922;-80
2023/06/11 11:29:30;;;;;;;;;;;;;;;;;;4948380;28;19961;-84
2023/06/11 11:32:17;;;;;;;;;;;;;;;;;;4944486;29;19926;-85
2023/06/11 11:35:03;;;;;;;;;;;;;;;;;;4942594;29;19937;-84
2023/06/11 11:37:51;;;;;;;;;;;;;;;;;;4929570;29;19919;-82
2023/06/11 11:40:37;;;;;;;;;;;;;;;;;;4947779;28;19914;-81
2023/06/11 11:43:23;;;;;;;;;;;;;;;;;;4948260;28;19927;-83
2023/06/11 11:46:10;;;;;;;;;;;;;;;;;;4936928;28;19930;-84
2023/06/11 11:48:56;;;;;;;;;;;;;;;;;;4935881;28;19918;-85
2023/06/11 11:51:51;;;;;;;;;;;;;;;;;;4932143;29;19918;-86
2023/06/11 11:54:38;;;;;;;;;;;;;;;;;;4926387;29;19923;-89
2023/06/11 11:57:25;;;;;;;;;;;;;;;;;;4924430;29;19929;-85
2023/06/11 12:00:12;;;;;;;;;;;;;;;;;;4935697;28;19923;-85
2023/06/11 12:02:58;;;;;;;;;;;;;;;;;;4933111;29;19914;-88
2023/06/11 12:05:45;;;;;;;;;;;;;;;;;;4932366;29;20396;-89
2023/06/11 12:08:31;;;;;;;;;;;;;;;;;;4942412;29;19922;-88
2023/06/11 12:11:18;;;;;;;;;;;;;;;;;;4948644;28;19919;-89
2023/06/11 12:14:04;;;;;;;;;;;;;;;;;;4947356;28;19923;-86
2023/06/11 12:16:51;;;;;;;;;;;;;;;;;;4939877;29;20409;-80
2023/06/11 12:19:37;;;;;;;;;;;;;;;;;;4945826;29;19926;-80
2023/06/11 12:22:24;;;;;;;;;;;;;;;;;;4950837;28;19926;-80
2023/06/11 12:25:11;;;;;;;;;;;;;;;;;;4920512;28;20527;-82
2023/06/11 12:27:58;;;;;;;;;;;;;;;;;;4946623;28;19938;-80
2023/06/11 12:30:45;;;;;;;;;;;;;;;;;;4934708;28;19925;-80
2023/06/11 12:33:32;;;;;;;;;;;;;;;;;;4940207;29;19923;-81
2023/06/11 12:36:18;;;;;;;;;;;;;;;;;;4934661;29;19929;-79
2023/06/11 12:39:05;;;;;;;;;;;;;;;;;;4945464;29;19938;-81
2023/06/11 12:41:51;;;;;;;;;;;;;;;;;;4941685;28;20279;-81
2023/06/11 12:44:38;;;;;;;;;;;;;;;;;;4947116;28;19932;-81
2023/06/11 12:47:24;;;;;;;;;;;;;;;;;;4942241;28;19915;-80
2023/06/11 12:50:11;;;;;;;;;;;;;;;;;;4929388;28;20560;-79
2023/06/11 12:52:59;;;;;;;;;;;;;;;;;;4945271;28;20397;-79
2023/06/11 12:55:45;;;;;;;;;;;;;;;;;;4938906;28;20947;-78
2023/06/11 12:58:32;;;;;;;;;;;;;;;;;;4947801;28;19915;-79
2023/06/11 13:01:18;;;;;;;;;;;;;;;;;;4945589;28;19942;-77
2023/06/11 13:04:05;;;;;;;;;;;;;;;;;;4942073;28;20363;-77
2023/06/11 13:06:51;;;;;;;;;;;;;;;;;;4937585;29;19919;-79
2023/06/11 13:09:38;;;;;;;;;;;;;;;;;;4930663;29;19923;-78
2023/06/11 13:12:25;;;;;;;;;;;;;;;;;;4942379;29;20341;-82
2023/06/11 13:15:12;;;;;;;;;;;;;;;;;;4943532;29;19926;-83
2023/06/11 13:17:58;;;;;;;;;;;;;;;;;;4940861;28;19926;-82
2023/06/11 13:20:45;;;;;;;;;;;;;;;;;;4923050;29;20770;-81
2023/06/11 13:23:31;;;;;;;;;;;;;;;;;;4934224;28;19925;-82
2023/06/11 13:26:18;;;;;;;;;;;;;;;;;;4936452;29;19923;-80
2023/06/11 13:29:04;;;;;;;;;;;;;;;;;;4929021;28;20704;-85
2023/06/11 13:31:51;;;;;;;;;;;;;;;;;;4946868;28;19927;-75
2023/06/11 13:34:37;;;;;;;;;;;;;;;;;;4950057;28;19930;-79
2023/06/11 13:37:24;;;;;;;;;;;;;;;;;;4946216;28;19919;-76
2023/06/11 13:40:10;;;;;;;;;;;;;;;;;;4951410;28;19927;-75
2023/06/11 13:42:57;;;;;;;;;;;;;;;;;;4952619;28;19918;-77
2023/06/11 13:45:46;;;;;;;;;;;;;;;;;;4935644;29;20383;-77
2023/06/11 13:48:33;;;;;;;;;;;;;;;;;;4952433;28;19919;-78
2023/06/11 13:51:20;;;;;;;;;;;;;;;;;;4935488;29;19918;-76
2023/06/11 13:54:07;;;;;;;;;;;;;;;;;;4940391;28;20367;-82
2023/06/11 13:56:53;;;;;;;;;;;;;;;;;;4949847;28;19930;-78
2023/06/11 13:59:40;;;;;;;;;;;;;;;;;;4953177;28;19926;-78
2023/06/11 14:02:26;;;;;;;;;;;;;;;;;;4936146;29;19923;-75
2023/06/11 14:05:13;;;;;;;;;;;;;;;;;;4949736;28;19937;-76
2023/06/11 14:07:59;;;;;;;;;;;;;;;;;;4944459;28;19922;-76
2023/06/11 14:10:46;;;;;;;;;;;;;;;;;;4957616;28;19944;-77
2023/06/11 14:13:32;;;;;;;;;;;;;;;;;;4947834;29;19930;-76
2023/06/11 14:16:19;;;;;;;;;;;;;;;;;;4947561;29;19919;-79
2023/06/11 14:19:07;;;;;;;;;;;;;;;;;;4951254;29;19930;-75
2023/06/11 14:21:54;;;;;;;;;;;;;;;;;;4945338;28;19918;-77
2023/06/11 14:24:40;;;;;;;;;;;;;;;;;;4953313;28;19918;-77
2023/06/11 14:27:27;;;;;;;;;;;;;;;;;;4952370;28;19930;-77
2023/06/11 14:30:13;;;;;;;;;;;;;;;;;;4952243;28;19918;-77
2023/06/11 14:33:00;;;;;;;;;;;;;;;;;;4937382;29;19933;-76
2023/06/11 14:35:46;;;;;;;;;;;;;;;;;;4939422;28;20409;-76
2023/06/11 14:38:33;;;;;;;;;;;;;;;;;;4953827;28;19929;-77
2023/06/11 14:41:20;;;;;;;;;;;;;;;;;;4963380;28;19918;-76
2023/06/11 14:44:07;;;;;;;;;;;;;;;;;;4964169;28;19933;-76
2023/06/11 14:46:53;;;;;;;;;;;;;;;;;;4953961;29;19933;-78
2023/06/11 14:49:40;;;;;;;;;;;;;;;;;;4960323;28;19918;-76
2023/06/11 14:52:26;;;;;;;;;;;;;;;;;;4949359;28;20470;-76
2023/06/11 14:55:13;;;;;;;;;;;;;;;;;;4935873;29;19929;-76
2023/06/11 14:57:59;;;;;;;;;;;;;;;;;;4945393;29;19925;-77
2023/06/11 15:00:46;;;;;;;;;;;;;;;;;;4947750;28;19919;-76
2023/06/11 15:03:32;;;;;;;;;;;;;;;;;;4945226;28;19922;-76
2023/06/11 15:06:19;;;;;;;;;;;;;;;;;;4956175;28;19918;-77
2023/06/11 15:09:05;;;;;;;;;;;;;;;;;;4943061;28;19922;-77
2023/06/11 15:11:52;;;;;;;;;;;;;;;;;;4944671;28;19940;-77
2023/06/11 15:14:38;;;;;;;;;;;;;;;;;;4937950;29;19930;-77
2023/06/11 15:17:25;;;;;;;;;;;;;;;;;;4940300;28;19921;-78
2023/06/11 15:20:11;;;;;;;;;;;;;;;;;;4944314;28;19929;-76
2023/06/11 15:22:58;;;;;;;;;;;;;;;;;;4935635;28;19927;-76
2023/06/11 15:25:44;;;;;;;;;;;;;;;;;;4948900;28;19925;-76
2023/06/11 15:28:31;;;;;;;;;;;;;;;;;;4927472;29;20314;-76
2023/06/11 15:31:17;;;;;;;;;;;;;;;;;;4936877;28;19918;-78
2023/06/11 15:34:04;;;;;;;;;;;;;;;;;;4939148;28;19930;-79
2023/06/11 15:36:50;;;;;;;;;;;;;;;;;;4945538;28;19923;-77
2023/06/11 15:39:37;;;;;;;;;;;;;;;;;;4942427;28;19934;-78
2023/06/11 15:42:23;;;;;;;;;;;;;;;;;;4941127;28;19925;-78
2023/06/11 15:45:11;;;;;;;;;;;;;;;;;;4942236;28;19930;-76
2023/06/11 15:47:58;;;;;;;;;;;;;;;;;;4941663;29;19921;-77
2023/06/11 15:50:44;;;;;;;;;;;;;;;;;;4939151;28;19930;-76
2023/06/11 15:53:31;;;;;;;;;;;;;;;;;;4927436;29;19936;-76
2023/06/11 15:56:17;;;;;;;;;;;;;;;;;;4932000;29;19928;-76
2023/06/11 15:59:04;;;;;;;;;;;;;;;;;;4943511;29;19930;-76
2023/06/11 16:01:50;;;;;;;;;;;;;;;;;;4943543;28;19922;-78
2023/06/11 16:04:37;;;;;;;;;;;;;;;;;;4932424;29;19930;-78
2023/06/11 16:07:23;;;;;;;;;;;;;;;;;;4938405;29;19925;-78
2023/06/11 16:10:10;;;;;;;;;;;;;;;;;;4945255;28;19922;-78
2023/06/11 16:12:56;;;;;;;;;;;;;;;;;;4942005;28;19933;-76
2023/06/11 16:15:43;;;;;;;;;;;;;;;;;;4940321;28;19922;-78
2023/06/11 16:18:30;;;;;;;;;;;;;;;;;;4950790;28;19914;-78
2023/06/11 16:21:16;;;;;;;;;;;;;;;;;;4937367;28;19923;-76
2023/06/11 16:24:03;;;;;;;;;;;;;;;;;;4914659;29;19915;-78
2023/06/11 16:26:49;;;;;;;;;;;;;;;;;;4939786;29;19938;-77
2023/06/11 16:29:36;;;;;;;;;;;;;;;;;;4933097;29;19926;-77
2023/06/11 16:32:22;;;;;;;;;;;;;;;;;;4927990;29;19922;-77
2023/06/11 16:35:09;;;;;;;;;;;;;;;;;;4935136;28;19926;-77
2023/06/11 16:37:55;;;;;;;;;;;;;;;;;;4938683;29;19919;-77
2023/06/11 16:40:42;;;;;;;;;;;;;;;;;;4929776;29;19919;-77
2023/06/11 16:43:28;;;;;;;;;;;;;;;;;;4938522;29;19922;-77
2023/06/11 16:46:15;;;;;;;;;;;;;;;;;;4937730;29;19929;-77
2023/06/11 16:49:01;;;;;;;;;;;;;;;;;;4943956;28;19918;-77
2023/06/11 16:51:48;;;;;;;;;;;;;;;;;;4938682;28;20295;-77
2023/06/11 16:54:34;;;;;;;;;;;;;;;;;;4935988;29;19930;-77
2023/06/11 16:57:21;;;;;;;;;;;;;;;;;;4932628;29;19919;-77
2023/06/11 17:00:08;;;;;;;;;;;;;;;;;;4934715;28;19923;-78
2023/06/11 17:02:54;;;;;;;;;;;;;;;;;;4943202;28;19929;-76
2023/06/11 17:05:41;;;;;;;;;;;;;;;;;;4941282;29;19932;-76
2023/06/11 17:08:27;;;;;;;;;;;;;;;;;;4937075;29;19946;-78
2023/06/11 17:11:14;;;;;;;;;;;;;;;;;;4943428;28;20380;-76
2023/06/11 17:14:01;;;;;;;;;;;;;;;;;;4941447;28;19938;-76
2023/06/11 17:16:47;;;;;;;;;;;;;;;;;;4922970;28;19923;-78
2023/06/11 17:19:34;;;;;;;;;;;;;;;;;;4934555;28;19923;-77
2023/06/11 17:22:21;;;;;;;;;;;;;;;;;;4932454;29;20590;-76
2023/06/11 17:25:07;;;;;;;;;;;;;;;;;;4945166;28;19941;-77
2023/06/11 17:27:54;;;;;;;;;;;;;;;;;;4940730;28;19935;-78
2023/06/11 17:30:40;;;;;;;;;;;;;;;;;;4939092;28;19918;-77
2023/06/11 17:33:27;;;;;;;;;;;;;;;;;;4938781;29;19930;-76
2023/06/11 17:36:13;;;;;;;;;;;;;;;;;;4943484;29;19922;-76
2023/06/11 17:39:00;;;;;;;;;;;;;;;;;;4944516;28;20464;-76
2023/06/11 17:41:46;;;;;;;;;;;;;;;;;;4938003;28;19926;-77
2023/06/11 17:44:33;;;;;;;;;;;;;;;;;;4950128;28;19926;-78
2023/06/11 17:47:19;;;;;;;;;;;;;;;;;;4941529;28;19933;-78
2023/06/11 17:50:06;;;;;;;;;;;;;;;;;;4940028;29;19923;-77
2023/06/11 17:52:52;;;;;;;;;;;;;;;;;;4949038;28;19967;-77
2023/06/11 17:55:39;;;;;;;;;;;;;;;;;;4944429;28;19918;-76
2023/06/11 17:58:25;;;;;;;;;;;;;;;;;;4942736;29;19922;-77
2023/06/11 18:01:12;;;;;;;;;;;;;;;;;;4941274;28;19933;-77
2023/06/11 18:03:58;;;;;;;;;;;;;;;;;;4945059;28;20375;-77
2023/06/11 18:06:45;;;;;;;;;;;;;;;;;;4941975;28;19929;-76
2023/06/11 18:09:31;;;;;;;;;;;;;;;;;;4944019;28;19925;-77
2023/06/11 18:12:18;;;;;;;;;;;;;;;;;;4941819;29;19930;-77
2023/06/11 18:15:04;;;;;;;;;;;;;;;;;;4942034;28;19929;-77
2023/06/11 18:17:51;;;;;;;;;;;;;;;;;;4951340;28;19922;-76
2023/06/11 18:20:38;;;;;;;;;;;;;;;;;;4942470;28;19929;-76
2023/06/11 18:23:25;;;;;;;;;;;;;;;;;;4940444;28;19922;-76
2023/06/11 18:26:11;;;;;;;;;;;;;;;;;;4942987;29;19929;-76
2023/06/11 18:28:58;;;;;;;;;;;;;;;;;;4944611;28;20003;-76
2023/06/11 18:31:44;;;;;;;;;;;;;;;;;;4940760;28;19914;-76
2023/06/11 18:34:31;;;;;;;;;;;;;;;;;;4933578;29;20404;-76
2023/06/11 18:37:17;;;;;;;;;;;;;;;;;;4948616;28;19966;-77
2023/06/11 18:40:03;;;;;;;;;;;;;;;;;;4945738;29;19918;-77
2023/06/11 18:42:50;;;;;;;;;;;;;;;;;;4934581;29;19926;-76
2023/06/11 18:45:36;;;;;;;;;;;;;;;;;;4944322;28;19918;-77
2023/06/11 18:48:23;;;;;;;;;;;;;;;;;;4941492;29;19922;-77
2023/06/11 18:51:10;;;;;;;;;;;;;;;;;;4938785;28;19929;-76
2023/06/11 18:53:57;;;;;;;;;;;;;;;;;;4945407;28;20391;-76
2023/06/11 18:56:43;;;;;;;;;;;;;;;;;;4938346;28;19926;-76
2023/06/11 18:59:30;;;;;;;;;;;;;;;;;;4950002;28;20087;-76
2023/06/11 19:02:16;;;;;;;;;;;;;;;;;;4941950;29;19923;-76